createdAt,value
2019-05-05T00:02:04.820Z,88.40
2019-05-05T00:04:47.382Z,88.40
2019-05-05T00:07:18.182Z,88.50
2019-05-05T00:09:47.344Z,88.60
2019-05-05T00:12:25.462Z,88.70
2019-05-05T00:14:56.282Z,88.90
2019-05-05T00:17:27.060Z,88.30
2019-05-05T00:19:56.339Z,88.30
2019-05-05T00:22:25.455Z,89.50
2019-05-05T00:24:54.732Z,88.50
2019-05-05T00:27:25.411Z,88.30
2019-05-05T00:29:54.836Z,88.50
2019-05-05T00:32:24.583Z,88.50
2019-05-05T00:34:55.139Z,88.60
2019-05-05T00:37:25.629Z,88.50
2019-05-05T00:39:55.095Z,88.90
2019-05-05T00:42:24.829Z,89.10
2019-05-05T00:44:54.900Z,89.30
2019-05-05T00:47:45.291Z,89.90
2019-05-05T00:50:16.105Z,89.90
2019-05-05T00:52:45.411Z,89.60
2019-05-05T00:55:15.206Z,89.60
2019-05-05T00:57:45.476Z,90.00
2019-05-05T01:00:18.779Z,90.00
2019-05-05T01:02:49.700Z,90.00
2019-05-05T01:05:25.189Z,89.60
2019-05-05T01:07:54.773Z,89.80
2019-05-05T01:10:25.174Z,89.60
2019-05-05T01:12:57.375Z,89.60
2019-05-05T01:15:27.699Z,89.00
2019-05-05T01:17:56.829Z,89.20
2019-05-05T01:20:26.071Z,89.00
2019-05-05T01:22:55.430Z,89.90
2019-05-05T01:25:25.476Z,90.00
2019-05-05T01:27:54.774Z,90.00
2019-05-05T01:30:29.647Z,89.60
2019-05-05T01:33:15.475Z,89.50
2019-05-05T01:35:45.620Z,89.50
2019-05-05T01:38:31.499Z,89.00
2019-05-05T01:41:04.190Z,88.70
2019-05-05T01:43:34.645Z,89.80
2019-05-05T01:46:05.161Z,88.80
2019-05-05T01:48:35.119Z,88.80
2019-05-05T01:51:05.053Z,88.70
2019-05-05T01:53:34.937Z,89.70
2019-05-05T01:56:05.305Z,89.40
2019-05-05T01:58:34.961Z,89.20
2019-05-05T02:01:04.994Z,89.10
2019-05-05T02:03:34.981Z,89.10
2019-05-05T02:06:05.274Z,89.40
2019-05-05T02:08:35.062Z,89.20
2019-05-05T02:11:05.244Z,88.80
2019-05-05T02:13:34.761Z,89.00
2019-05-05T02:16:04.754Z,89.00
2019-05-05T02:18:34.576Z,89.50
2019-05-05T02:21:05.408Z,89.50
2019-05-05T02:23:35.303Z,89.40
2019-05-05T02:26:05.796Z,89.20
2019-05-05T02:28:36.602Z,89.20
2019-05-05T02:31:25.266Z,88.80
2019-05-05T02:33:56.592Z,89.40
2019-05-05T02:36:25.724Z,89.10
2019-05-05T02:38:56.685Z,89.40
2019-05-05T02:41:26.033Z,89.10
2019-05-05T02:43:55.849Z,89.40
2019-05-05T02:46:35.931Z,89.40
2019-05-05T02:49:05.675Z,89.30
2019-05-05T02:51:35.596Z,89.50
2019-05-05T02:54:05.939Z,89.50
2019-05-05T02:56:46.065Z,89.20
2019-05-05T02:59:16.902Z,89.30
2019-05-05T03:01:47.806Z,89.10
2019-05-05T03:04:16.960Z,88.30
2019-05-05T03:06:47.456Z,88.60
2019-05-05T03:09:16.628Z,89.20
2019-05-05T03:11:46.048Z,88.80
2019-05-05T03:14:15.221Z,87.90
2019-05-05T03:16:44.384Z,87.40
2019-05-05T03:19:14.213Z,86.90
2019-05-05T03:21:44.140Z,86.70
2019-05-05T03:24:14.355Z,87.20
2019-05-05T03:26:44.463Z,87.00
2019-05-05T03:29:21.077Z,87.20
2019-05-05T03:31:50.290Z,86.90
2019-05-05T03:34:20.014Z,86.60
2019-05-05T03:36:49.183Z,85.90
2019-05-05T03:39:26.027Z,86.40
2019-05-05T03:41:59.881Z,85.70
2019-05-05T03:44:30.675Z,85.60
2019-05-05T03:46:59.851Z,85.70
2019-05-05T03:49:28.997Z,85.30
2019-05-05T03:51:58.170Z,85.40
2019-05-05T03:54:27.575Z,84.80
2019-05-05T03:57:09.042Z,84.50
2019-05-05T03:59:44.091Z,83.80
2019-05-05T04:02:17.575Z,84.50
2019-05-05T04:04:48.393Z,84.90
2019-05-05T04:07:17.579Z,85.20
2019-05-05T04:09:46.790Z,85.60
2019-05-05T04:12:16.122Z,85.80
2019-05-05T04:14:45.333Z,86.10
2019-05-05T04:17:33.519Z,85.30
2019-05-05T04:20:19.255Z,84.30
2019-05-05T04:22:49.486Z,84.80
2019-05-05T04:25:18.643Z,85.00
2019-05-05T04:27:47.861Z,85.20
2019-05-05T04:30:17.027Z,84.40
2019-05-05T04:32:46.186Z,84.30
2019-05-05T04:35:15.367Z,84.20
2019-05-05T04:37:44.526Z,83.70
2019-05-05T04:40:14.782Z,83.50
2019-05-05T04:42:44.362Z,83.90
2019-05-05T04:45:14.845Z,84.00
2019-05-05T04:47:45.805Z,83.70
2019-05-05T04:50:19.283Z,83.20
2019-05-05T04:52:50.014Z,83.90
2019-05-05T04:55:20.280Z,83.30
2019-05-05T04:57:49.434Z,82.90
2019-05-05T05:00:18.598Z,82.90
2019-05-05T05:02:58.642Z,82.40
2019-05-05T05:05:33.764Z,81.80
2019-05-05T05:08:03.697Z,81.80
2019-05-05T05:10:34.590Z,81.20
2019-05-05T05:13:04.651Z,81.40
2019-05-05T05:15:34.188Z,80.90
2019-05-05T05:18:05.085Z,81.60
2019-05-05T05:20:34.292Z,80.20
2019-05-05T05:23:03.752Z,80.30
2019-05-05T05:25:34.646Z,80.90
2019-05-05T05:28:04.384Z,80.80
2019-05-05T05:30:34.714Z,80.40
2019-05-05T05:33:04.790Z,80.60
2019-05-05T05:35:33.962Z,81.10
2019-05-05T05:38:04.618Z,81.80
2019-05-05T05:40:48.038Z,81.90
2019-05-05T05:43:18.894Z,82.10
2019-05-05T05:45:55.729Z,81.30
2019-05-05T05:48:29.502Z,80.00
2019-05-05T05:51:00.314Z,79.00
2019-05-05T05:53:29.488Z,78.70
2019-05-05T05:55:58.648Z,78.50
2019-05-05T05:58:27.847Z,78.50
2019-05-05T06:00:57.795Z,78.80
2019-05-05T06:03:27.013Z,78.40
2019-05-05T06:05:56.254Z,78.80
2019-05-05T06:08:25.399Z,78.50
2019-05-05T06:10:54.837Z,78.10
2019-05-05T06:13:24.301Z,77.10
2019-05-05T06:15:53.751Z,77.80
2019-05-05T06:18:24.318Z,76.70
2019-05-05T06:20:53.866Z,77.10
2019-05-05T06:23:24.038Z,77.10
2019-05-05T06:25:55.097Z,77.00
2019-05-05T06:28:24.563Z,76.00
2019-05-05T06:30:54.685Z,76.70
2019-05-05T06:33:24.257Z,76.40
2019-05-05T06:35:54.575Z,76.60
2019-05-05T06:38:24.270Z,77.10
2019-05-05T06:41:00.738Z,76.30
2019-05-05T06:43:49.849Z,76.60
2019-05-05T06:46:26.521Z,76.40
2019-05-05T06:48:55.711Z,76.50
2019-05-05T06:51:24.929Z,76.80
2019-05-05T06:53:54.135Z,76.20
2019-05-05T06:56:23.848Z,75.50
2019-05-05T06:58:54.062Z,74.70
2019-05-05T07:01:24.785Z,74.50
2019-05-05T07:03:54.229Z,74.10
2019-05-05T07:06:23.980Z,74.30
2019-05-05T07:08:54.573Z,74.10
2019-05-05T07:11:23.992Z,74.50
2019-05-05T07:13:53.764Z,74.50
2019-05-05T07:16:24.301Z,74.40
2019-05-05T07:18:54.040Z,74.50
2019-05-05T07:21:25.151Z,74.30
2019-05-05T07:23:54.293Z,74.90
2019-05-05T07:26:23.889Z,74.30
2019-05-05T07:28:54.326Z,74.30
2019-05-05T07:31:23.892Z,74.10
2019-05-05T07:33:54.483Z,73.30
2019-05-05T07:36:40.660Z,73.60
2019-05-05T07:39:11.092Z,73.40
2019-05-05T07:41:40.691Z,74.10
2019-05-05T07:44:25.096Z,73.60
2019-05-05T07:46:41.047Z,73.60
2019-05-05T07:49:10.241Z,73.00
2019-05-05T07:51:39.377Z,72.80
2019-05-05T07:54:08.564Z,71.80
2019-05-05T07:56:37.763Z,70.50
2019-05-05T07:59:07.502Z,70.20
2019-05-05T08:01:36.651Z,70.00
2019-05-05T08:04:05.814Z,68.80
2019-05-05T08:06:34.965Z,68.70
2019-05-05T08:09:05.550Z,67.30
2019-05-05T08:11:35.841Z,66.60
2019-05-05T08:14:05.075Z,67.30
2019-05-05T08:16:53.622Z,67.20
2019-05-05T08:19:27.206Z,66.60
2019-05-05T08:21:56.343Z,66.90
2019-05-05T08:24:30.104Z,66.40
2019-05-05T08:27:16.303Z,65.30
2019-05-05T08:29:47.240Z,65.80
2019-05-05T08:32:23.912Z,64.20
2019-05-05T08:34:59.848Z,64.90
2019-05-05T08:37:23.936Z,65.50
2019-05-05T08:39:54.036Z,66.30
2019-05-05T08:42:24.638Z,65.10
2019-05-05T08:44:54.168Z,65.50
2019-05-05T08:47:24.586Z,64.90
2019-05-05T08:49:54.337Z,64.50
2019-05-05T08:52:23.907Z,65.60
2019-05-05T08:54:54.128Z,65.80
2019-05-05T08:57:23.718Z,64.30
2019-05-05T08:59:54.495Z,63.70
2019-05-05T09:02:24.052Z,63.80
2019-05-05T09:04:53.894Z,62.50
2019-05-05T09:07:24.328Z,63.40
2019-05-05T09:09:54.828Z,61.80
2019-05-05T09:12:23.998Z,59.90
2019-05-05T09:14:53.873Z,60.00
2019-05-05T09:17:24.342Z,59.70
2019-05-05T09:19:54.044Z,60.30
2019-05-05T09:22:24.583Z,61.40
2019-05-05T09:25:04.611Z,60.80
2019-05-05T09:27:44.128Z,58.70
2019-05-05T09:30:14.635Z,57.10
2019-05-05T09:32:43.986Z,55.50
2019-05-05T09:35:14.250Z,54.00
2019-05-05T09:37:44.351Z,52.60
2019-05-05T09:40:15.338Z,52.40
2019-05-05T09:42:44.603Z,53.20
2019-05-05T09:45:14.075Z,54.90
2019-05-05T09:47:44.990Z,55.70
2019-05-05T09:50:15.923Z,55.00
2019-05-05T09:52:45.125Z,54.00
2019-05-05T09:55:14.337Z,55.00
2019-05-05T09:57:43.931Z,55.30
2019-05-05T10:00:14.386Z,56.20
2019-05-05T10:02:44.173Z,56.40
2019-05-05T10:05:14.645Z,56.80
2019-05-05T10:07:44.169Z,56.50
2019-05-05T10:10:13.884Z,56.30
2019-05-05T10:12:44.601Z,54.20
2019-05-05T10:15:14.077Z,54.70
2019-05-05T10:17:43.865Z,56.00
2019-05-05T10:20:14.567Z,55.00
2019-05-05T10:22:44.935Z,54.80
2019-05-05T10:25:25.902Z,55.00
2019-05-05T10:27:55.507Z,54.20
2019-05-05T10:30:24.648Z,54.70
2019-05-05T10:32:54.567Z,55.60
2019-05-05T10:35:23.954Z,55.10
2019-05-05T10:37:54.539Z,52.10
2019-05-05T10:40:26.088Z,50.50
2019-05-05T10:42:55.238Z,48.00
2019-05-05T10:45:24.715Z,47.70
2019-05-05T10:47:54.329Z,48.10
2019-05-05T10:50:24.651Z,49.00
2019-05-05T10:52:57.703Z,48.40
2019-05-05T10:55:27.289Z,51.10
2019-05-05T10:58:00.114Z,51.90
2019-05-05T11:00:44.545Z,52.30
2019-05-05T11:03:15.073Z,50.70
2019-05-05T11:05:45.131Z,50.60
2019-05-05T11:08:15.599Z,54.00
2019-05-05T11:10:45.288Z,55.00
2019-05-05T11:13:15.681Z,56.80
2019-05-05T11:15:46.483Z,56.10
2019-05-05T11:18:15.736Z,56.80
2019-05-05T11:20:45.373Z,57.90
2019-05-05T11:23:15.262Z,59.00
2019-05-05T11:25:49.936Z,63.20
2019-05-05T11:28:22.462Z,66.20
2019-05-05T11:30:53.621Z,68.50
2019-05-05T11:33:30.032Z,70.90
2019-05-05T11:36:20.582Z,72.30
2019-05-05T11:38:47.674Z,73.70
2019-05-05T11:41:17.127Z,75.10
2019-05-05T11:43:46.596Z,75.40
2019-05-05T11:46:15.770Z,72.70
2019-05-05T11:48:45.154Z,73.70
2019-05-05T11:51:15.054Z,72.40
2019-05-05T11:53:44.855Z,70.90
2019-05-05T11:56:15.240Z,68.10
2019-05-05T11:58:48.945Z,68.10
2019-05-05T12:01:18.154Z,66.10
2019-05-05T12:03:47.358Z,65.20
2019-05-05T12:06:16.878Z,63.40
2019-05-05T12:08:46.154Z,66.20
2019-05-05T12:11:15.676Z,68.60
2019-05-05T12:13:44.936Z,62.40
2019-05-05T12:16:15.878Z,62.10
2019-05-05T12:18:45.192Z,62.50
2019-05-05T12:21:14.402Z,63.70
2019-05-05T12:23:44.470Z,63.70
2019-05-05T12:26:18.172Z,59.30
2019-05-05T12:28:54.951Z,60.00
2019-05-05T12:31:28.758Z,60.00
2019-05-05T12:33:57.941Z,57.20
2019-05-05T12:36:27.084Z,57.00
2019-05-05T12:38:56.241Z,57.00
2019-05-05T12:41:25.479Z,56.60
2019-05-05T12:43:55.099Z,54.40
2019-05-05T12:46:29.096Z,54.30
2019-05-05T12:49:00.015Z,54.30
2019-05-05T12:51:29.241Z,55.30
2019-05-05T12:53:58.457Z,55.90
2019-05-05T12:56:27.635Z,55.90
2019-05-05T12:58:56.805Z,55.60
2019-05-05T13:01:39.881Z,54.60
2019-05-05T13:04:09.073Z,56.70
2019-05-05T13:06:38.538Z,57.10
2019-05-05T13:09:07.910Z,55.10
2019-05-05T13:11:37.337Z,53.70
2019-05-05T13:14:06.519Z,51.80
2019-05-05T13:16:35.835Z,52.00
2019-05-05T13:19:06.647Z,52.60
2019-05-05T13:21:44.220Z,52.80
2019-05-05T13:24:31.847Z,54.20
2019-05-05T13:27:08.731Z,56.00
2019-05-05T13:29:33.866Z,58.80
2019-05-05T13:32:03.690Z,61.80
2019-05-05T13:34:33.031Z,65.00
2019-05-05T13:37:03.603Z,67.50
2019-05-05T13:39:34.024Z,70.20
2019-05-05T13:42:04.611Z,73.50
2019-05-05T13:44:50.733Z,75.40
2019-05-05T13:47:20.124Z,77.00
2019-05-05T13:49:50.987Z,76.20
2019-05-05T13:52:20.173Z,77.30
2019-05-05T13:54:49.333Z,78.60
2019-05-05T13:57:18.576Z,77.30
2019-05-05T13:59:47.843Z,78.90
2019-05-05T14:02:17.129Z,77.70
2019-05-05T14:04:46.374Z,82.60
2019-05-05T14:07:15.615Z,79.90
2019-05-05T14:09:45.921Z,75.90
2019-05-05T14:12:15.095Z,75.10
2019-05-05T14:14:44.335Z,72.20
2019-05-05T14:17:14.739Z,74.60
2019-05-05T14:19:44.640Z,72.00
2019-05-05T14:22:15.114Z,69.10
2019-05-05T14:24:46.178Z,68.90
2019-05-05T14:27:16.342Z,65.10
2019-05-05T14:29:56.222Z,61.20
2019-05-05T14:32:27.179Z,62.10
2019-05-05T14:35:00.777Z,61.40
2019-05-05T14:37:31.602Z,58.10
2019-05-05T14:40:00.834Z,57.70
2019-05-05T14:42:31.779Z,55.00
2019-05-05T14:45:01.082Z,56.60
2019-05-05T14:47:33.459Z,55.70
2019-05-05T14:50:04.531Z,53.50
2019-05-05T14:52:33.393Z,53.00
2019-05-05T14:55:03.875Z,52.50
2019-05-05T14:57:33.688Z,53.70
2019-05-05T15:00:04.806Z,53.40
2019-05-05T15:02:34.745Z,53.60
2019-05-05T15:05:24.468Z,51.30
2019-05-05T15:08:13.626Z,54.50
2019-05-05T15:11:01.175Z,52.80
2019-05-05T15:13:30.352Z,52.50
2019-05-05T15:15:59.645Z,52.80
2019-05-05T15:18:28.804Z,53.30
2019-05-05T15:20:58.116Z,53.90
2019-05-05T15:23:27.478Z,54.90
2019-05-05T15:25:56.758Z,56.60
2019-05-05T15:28:25.954Z,58.80
2019-05-05T15:30:55.178Z,58.90
2019-05-05T15:33:24.553Z,57.90
2019-05-05T15:35:54.325Z,60.10
2019-05-05T15:38:24.437Z,62.50
2019-05-05T15:40:54.743Z,62.20
2019-05-05T15:43:24.393Z,58.80
2019-05-05T15:45:54.128Z,59.60
2019-05-05T15:48:23.408Z,58.20
2019-05-05T15:50:54.502Z,56.60
2019-05-05T15:53:23.590Z,54.00
2019-05-05T15:55:54.013Z,56.60
2019-05-05T15:58:24.463Z,57.00
2019-05-05T16:00:53.913Z,54.90
2019-05-05T16:03:23.184Z,55.90
2019-05-05T16:05:54.128Z,57.00
2019-05-05T16:08:23.186Z,57.00
2019-05-05T16:10:54.442Z,57.50
2019-05-05T16:13:23.385Z,58.60
2019-05-05T16:15:55.712Z,58.00
2019-05-05T16:18:32.559Z,58.40
2019-05-05T16:21:09.160Z,59.30
2019-05-05T16:23:44.286Z,58.70
2019-05-05T16:26:14.060Z,58.80
2019-05-05T16:28:44.554Z,58.60
2019-05-05T16:31:14.519Z,59.10
2019-05-05T16:33:44.195Z,60.00
2019-05-05T16:36:13.930Z,58.80
2019-05-05T16:38:43.659Z,59.20
2019-05-05T16:41:13.597Z,59.30
2019-05-05T16:43:44.332Z,57.80
2019-05-05T16:46:16.687Z,55.20
2019-05-05T16:48:44.766Z,54.10
2019-05-05T16:51:15.660Z,52.30
2019-05-05T16:53:44.958Z,52.40
2019-05-05T16:56:15.795Z,52.40
2019-05-05T16:58:46.013Z,52.80
2019-05-05T17:01:16.654Z,52.80
2019-05-05T17:03:46.055Z,52.70
2019-05-05T17:06:15.360Z,50.90
2019-05-05T17:08:44.648Z,50.50
2019-05-05T17:11:14.985Z,51.00
2019-05-05T17:13:49.178Z,50.80
2019-05-05T17:16:35.423Z,51.50
2019-05-05T17:19:13.977Z,51.90
2019-05-05T17:21:53.895Z,51.80
2019-05-05T17:24:24.233Z,51.50
2019-05-05T17:26:54.942Z,52.10
2019-05-05T17:29:24.460Z,52.10
2019-05-05T17:31:54.084Z,52.10
2019-05-05T17:34:24.791Z,52.40
2019-05-05T17:36:54.040Z,54.30
2019-05-05T17:39:25.100Z,59.20
2019-05-05T17:41:56.026Z,61.90
2019-05-05T17:44:26.930Z,63.90
2019-05-05T17:47:04.443Z,64.80
2019-05-05T17:49:54.113Z,64.70
2019-05-05T17:52:27.458Z,66.00
2019-05-05T17:54:57.403Z,66.80
2019-05-05T17:57:26.553Z,67.90
2019-05-05T17:59:55.720Z,67.60
2019-05-05T18:02:24.950Z,68.00
2019-05-05T18:04:54.306Z,67.90
2019-05-05T18:07:25.219Z,67.10
2019-05-05T18:09:56.076Z,67.40
2019-05-05T18:12:26.941Z,67.70
2019-05-05T18:14:57.751Z,69.20
2019-05-05T18:17:26.938Z,69.20
2019-05-05T18:19:56.134Z,68.00
2019-05-05T18:22:25.317Z,68.10
2019-05-05T18:24:54.494Z,71.10
2019-05-05T18:27:23.818Z,71.30
2019-05-05T18:29:54.407Z,73.90
2019-05-05T18:32:23.848Z,75.30
2019-05-05T18:34:54.545Z,72.00
2019-05-05T18:37:24.969Z,72.70
2019-05-05T18:39:54.751Z,73.00
2019-05-05T18:42:25.024Z,73.20
2019-05-05T18:44:56.940Z,72.40
2019-05-05T18:47:26.174Z,73.50
2019-05-05T18:49:55.410Z,73.60
2019-05-05T18:52:24.716Z,74.60
2019-05-05T18:54:54.434Z,72.70
2019-05-05T18:57:24.856Z,70.10
2019-05-05T18:59:54.422Z,71.60
2019-05-05T19:02:28.358Z,70.30
2019-05-05T19:05:16.690Z,76.30
2019-05-05T19:07:56.008Z,77.40
2019-05-05T19:10:24.518Z,77.30
2019-05-05T19:12:54.337Z,73.40
2019-05-05T19:15:24.475Z,74.70
2019-05-05T19:17:53.963Z,73.60
2019-05-05T19:20:27.582Z,74.00
2019-05-05T19:22:57.464Z,72.90
2019-05-05T19:25:26.753Z,69.10
2019-05-05T19:27:56.007Z,71.20
2019-05-05T19:30:25.761Z,68.30
2019-05-05T19:32:55.048Z,68.80
2019-05-05T19:35:40.228Z,68.00
2019-05-05T19:37:55.123Z,68.80
2019-05-05T19:40:24.426Z,67.90
2019-05-05T19:42:53.964Z,67.10
2019-05-05T19:45:24.097Z,67.80
2019-05-05T19:47:54.103Z,66.80
2019-05-05T19:50:24.967Z,66.20
2019-05-05T19:52:56.320Z,67.40
2019-05-05T19:55:26.384Z,67.20
2019-05-05T19:57:55.606Z,67.80
2019-05-05T20:00:26.353Z,66.30
2019-05-05T20:03:04.578Z,67.00
2019-05-05T20:05:26.656Z,66.80
2019-05-05T20:07:55.827Z,66.00
2019-05-05T20:10:24.994Z,65.10
2019-05-05T20:12:54.280Z,65.40
2019-05-05T20:15:25.172Z,65.50
2019-05-05T20:17:54.331Z,65.70
2019-05-05T20:20:23.512Z,66.00
2019-05-05T20:22:54.677Z,66.40
2019-05-05T20:25:24.418Z,66.40
2019-05-05T20:27:55.958Z,65.60
2019-05-05T20:30:24.898Z,65.50
2019-05-05T20:32:56.323Z,64.60
2019-05-05T20:35:27.501Z,65.10
2019-05-05T20:38:04.881Z,64.90
2019-05-05T20:40:54.606Z,64.50
2019-05-05T20:43:18.742Z,64.90
2019-05-05T20:45:47.918Z,65.50
2019-05-05T20:48:17.124Z,65.10
2019-05-05T20:50:46.286Z,66.10
2019-05-05T20:53:15.481Z,63.20
2019-05-05T20:55:44.840Z,64.70
2019-05-05T20:58:14.608Z,65.10
2019-05-05T21:00:44.334Z,65.10
2019-05-05T21:03:14.199Z,65.40
2019-05-05T21:05:44.032Z,64.70
2019-05-05T21:08:14.166Z,65.30
2019-05-05T21:10:44.575Z,65.40
2019-05-05T21:13:14.359Z,65.70
2019-05-05T21:15:45.183Z,66.30
2019-05-05T21:18:14.555Z,66.70
2019-05-05T21:20:43.817Z,67.70
2019-05-05T21:23:24.564Z,70.00
2019-05-05T21:26:01.401Z,72.20
2019-05-05T21:28:30.627Z,73.30
2019-05-05T21:30:59.784Z,74.80
2019-05-05T21:33:28.929Z,75.50
2019-05-05T21:35:58.071Z,75.60
2019-05-05T21:38:27.248Z,75.70
2019-05-05T21:40:56.419Z,75.60
2019-05-05T21:43:26.100Z,76.20
2019-05-05T21:45:55.299Z,75.80
2019-05-05T21:48:24.445Z,75.60
2019-05-05T21:51:04.749Z,75.80
2019-05-05T21:53:35.754Z,76.00
2019-05-05T21:56:09.487Z,76.30
2019-05-05T21:58:43.954Z,76.40
2019-05-05T22:01:15.170Z,77.00
2019-05-05T22:03:44.511Z,77.00
2019-05-05T22:06:14.561Z,76.80
2019-05-05T22:08:43.998Z,77.00
2019-05-05T22:11:14.677Z,77.50
2019-05-05T22:13:44.363Z,77.20
2019-05-05T22:16:13.812Z,77.70
2019-05-05T22:18:44.668Z,77.70
2019-05-05T22:21:18.299Z,73.30
2019-05-05T22:23:49.079Z,73.00
2019-05-05T22:26:18.242Z,73.40
2019-05-05T22:28:47.391Z,74.90
2019-05-05T22:31:16.672Z,75.90
2019-05-05T22:33:45.855Z,76.10
2019-05-05T22:36:15.031Z,75.60
2019-05-05T22:38:44.662Z,75.60
2019-05-05T22:41:15.873Z,75.50
2019-05-05T22:43:44.786Z,75.60
2019-05-05T22:46:14.209Z,73.10
2019-05-05T22:48:44.010Z,74.20
2019-05-05T22:51:14.400Z,75.40
2019-05-05T22:53:44.180Z,75.40
2019-05-05T22:56:14.756Z,76.30
2019-05-05T22:58:44.063Z,77.20
2019-05-05T23:01:13.700Z,79.10
2019-05-05T23:03:47.341Z,77.40
2019-05-05T23:06:34.463Z,77.90
2019-05-05T23:09:04.955Z,76.80
2019-05-05T23:11:34.980Z,77.30
2019-05-05T23:14:22.344Z,77.20
2019-05-05T23:16:53.803Z,76.40
2019-05-05T23:19:25.722Z,77.20
2019-05-05T23:21:56.619Z,77.40
2019-05-05T23:24:30.181Z,78.50
2019-05-05T23:26:59.335Z,78.60
2019-05-05T23:29:28.497Z,78.30
2019-05-05T23:31:57.660Z,78.50
2019-05-05T23:34:26.810Z,79.20
2019-05-05T23:36:56.025Z,79.50
2019-05-05T23:39:25.177Z,79.10
2019-05-05T23:41:54.832Z,78.90
2019-05-05T23:44:24.108Z,78.90
2019-05-05T23:46:53.875Z,78.70
2019-05-05T23:49:24.266Z,79.00
2019-05-05T23:51:54.149Z,79.40
2019-05-05T23:54:24.603Z,79.60
2019-05-05T23:56:54.283Z,79.70
2019-05-05T23:59:24.043Z,80.30
